createdAt,value
2023-01-17T00:02:11.588Z,92.60
2023-01-17T00:06:12.176Z,92.50
2023-01-17T00:09:54.017Z,92.60
2023-01-17T00:13:35.741Z,92.60
2023-01-17T00:17:17.548Z,92.50
2023-01-17T00:21:18.384Z,92.40
2023-01-17T00:25:18.815Z,92.30
2023-01-17T00:29:00.494Z,92.30
2023-01-17T00:32:42.258Z,92.30
2023-01-17T00:36:24.292Z,92.10
2023-01-17T00:40:06.835Z,91.90
2023-01-17T00:44:07.202Z,91.60
2023-01-17T00:48:07.587Z,91.50
2023-01-17T00:52:08.035Z,91.50
2023-01-17T00:56:08.788Z,91.50
2023-01-17T01:00:09.561Z,91.40
2023-01-17T01:04:10.268Z,91.40
2023-01-17T01:08:10.740Z,91.40
2023-01-17T01:12:10.997Z,91.40
2023-01-17T01:16:11.389Z,91.40
2023-01-17T01:20:12.116Z,91.30
2023-01-17T01:24:12.395Z,91.30
2023-01-17T01:28:22.708Z,91.30
2023-01-17T01:32:23.163Z,91.40
2023-01-17T01:36:07.817Z,91.70
2023-01-17T01:39:49.689Z,91.40
2023-01-17T01:43:47.888Z,91.40
2023-01-17T01:47:35.819Z,91.70
2023-01-17T01:51:22.053Z,91.60
2023-01-17T01:55:16.597Z,91.70
2023-01-17T01:58:59.911Z,91.80
2023-01-17T02:02:43.333Z,91.70
2023-01-17T02:06:27.782Z,91.70
2023-01-17T02:10:10.125Z,91.60
2023-01-17T02:13:51.881Z,91.70
2023-01-17T02:17:51.617Z,91.60
2023-01-17T02:21:59.111Z,91.70
2023-01-17T02:26:03.512Z,91.60
2023-01-17T02:30:03.732Z,91.50
2023-01-17T02:34:02.559Z,91.40
2023-01-17T02:38:12.982Z,91.30
2023-01-17T02:42:00.175Z,91.40
2023-01-17T02:45:42.236Z,91.30
2023-01-17T02:49:30.288Z,91.30
2023-01-17T02:53:20.559Z,91.30
2023-01-17T02:57:36.788Z,91.30
2023-01-17T03:01:43.057Z,91.30
2023-01-17T03:05:52.924Z,91.30
2023-01-17T03:09:35.264Z,91.30
2023-01-17T03:13:17.135Z,91.30
2023-01-17T03:16:59.068Z,91.30
2023-01-17T03:20:40.964Z,91.30
2023-01-17T03:24:22.674Z,91.40
2023-01-17T03:28:04.675Z,91.40
2023-01-17T03:31:46.706Z,91.50
2023-01-17T03:35:28.532Z,91.50
2023-01-17T03:39:10.233Z,91.50
2023-01-17T03:42:52.008Z,91.50
2023-01-17T03:46:33.797Z,91.60
2023-01-17T03:50:15.691Z,91.50
2023-01-17T03:53:57.586Z,91.50
2023-01-17T03:57:39.599Z,91.50
2023-01-17T04:01:21.355Z,91.40
2023-01-17T04:05:03.398Z,91.40
2023-01-17T04:08:45.111Z,91.40
2023-01-17T04:12:26.893Z,91.40
2023-01-17T04:16:15.394Z,91.40
2023-01-17T04:19:57.165Z,91.40
2023-01-17T04:23:38.996Z,91.40
2023-01-17T04:27:20.794Z,91.50
2023-01-17T04:31:02.545Z,91.50
2023-01-17T04:34:44.275Z,91.50
2023-01-17T04:38:26.040Z,91.60
2023-01-17T04:42:07.767Z,91.70
2023-01-17T04:45:55.209Z,91.70
2023-01-17T04:49:36.930Z,91.70
2023-01-17T04:53:18.649Z,91.70
2023-01-17T04:57:00.365Z,91.70
2023-01-17T05:00:42.068Z,91.70
2023-01-17T05:04:23.896Z,91.70
2023-01-17T05:08:05.587Z,91.70
2023-01-17T05:11:47.295Z,91.80
2023-01-17T05:15:29.593Z,91.80
2023-01-17T05:19:11.352Z,91.90
2023-01-17T05:22:57.559Z,91.80
2023-01-17T05:26:40.698Z,91.60
2023-01-17T05:30:23.004Z,91.50
2023-01-17T05:34:04.858Z,91.40
2023-01-17T05:37:49.618Z,91.30
2023-01-17T05:41:31.310Z,91.30
2023-01-17T05:45:19.453Z,91.20
2023-01-17T05:49:01.207Z,91.20
2023-01-17T05:52:53.129Z,91.20
2023-01-17T05:56:34.984Z,91.10
2023-01-17T06:00:18.035Z,91.20
2023-01-17T06:03:59.770Z,91.20
2023-01-17T06:07:44.723Z,91.30
2023-01-17T06:11:26.845Z,91.20
2023-01-17T06:15:09.550Z,91.20
2023-01-17T06:18:51.308Z,91.30
2023-01-17T06:22:33.737Z,91.40
2023-01-17T06:26:15.491Z,91.40
2023-01-17T06:29:57.209Z,91.40
2023-01-17T06:33:38.933Z,91.40
2023-01-17T06:37:20.626Z,91.50
2023-01-17T06:41:05.799Z,91.50
2023-01-17T06:44:47.588Z,91.40
2023-01-17T06:48:29.362Z,91.40
2023-01-17T06:52:11.110Z,91.50
2023-01-17T06:55:56.598Z,91.50
2023-01-17T06:59:38.443Z,91.40
2023-01-17T07:03:22.699Z,91.40
2023-01-17T07:07:04.483Z,91.40
2023-01-17T07:10:48.055Z,91.50
2023-01-17T07:14:30.376Z,91.40
2023-01-17T07:18:12.146Z,91.50
2023-01-17T07:21:54.491Z,91.50
2023-01-17T07:25:36.240Z,91.60
2023-01-17T07:29:18.755Z,91.70
2023-01-17T07:33:01.403Z,91.80
2023-01-17T07:36:43.136Z,91.90
2023-01-17T07:40:25.436Z,91.90
2023-01-17T07:44:14.008Z,92.00
2023-01-17T07:47:58.816Z,92.00
2023-01-17T07:51:40.530Z,92.10
2023-01-17T07:55:22.727Z,92.20
2023-01-17T07:59:04.449Z,92.20
2023-01-17T08:02:46.265Z,92.20
2023-01-17T08:06:29.235Z,92.30
2023-01-17T08:10:13.292Z,92.40
2023-01-17T08:13:59.267Z,92.50
2023-01-17T08:17:49.342Z,92.60
2023-01-17T08:21:31.165Z,92.50
2023-01-17T08:25:13.048Z,92.60
2023-01-17T08:28:56.853Z,92.60
2023-01-17T08:32:41.650Z,92.60
2023-01-17T08:36:25.720Z,92.70
2023-01-17T08:40:08.773Z,92.80
2023-01-17T08:43:51.785Z,92.80
2023-01-17T08:47:34.815Z,92.90
2023-01-17T08:51:16.595Z,93.00
2023-01-17T08:54:58.518Z,93.00
2023-01-17T08:58:41.413Z,93.10
2023-01-17T09:02:24.711Z,93.00
2023-01-17T09:06:09.486Z,92.90
2023-01-17T09:09:52.658Z,92.80
2023-01-17T09:13:34.891Z,93.00
2023-01-17T09:17:16.713Z,93.10
2023-01-17T09:21:01.619Z,93.10
2023-01-17T09:24:43.374Z,93.20
2023-01-17T09:28:26.496Z,93.30
2023-01-17T09:32:08.264Z,93.70
2023-01-17T09:35:50.207Z,93.50
2023-01-17T09:39:31.941Z,93.60
2023-01-17T09:43:40.743Z,93.70
2023-01-17T09:47:34.514Z,93.70
2023-01-17T09:51:20.383Z,93.80
2023-01-17T09:55:02.682Z,93.40
2023-01-17T09:58:52.555Z,94.10
2023-01-17T10:03:01.995Z,94.00
2023-01-17T10:07:02.834Z,93.80
2023-01-17T10:10:55.119Z,93.70
2023-01-17T10:14:36.814Z,93.60
2023-01-17T10:18:30.434Z,94.20
2023-01-17T10:22:42.962Z,94.20
2023-01-17T10:26:26.052Z,93.70
2023-01-17T10:30:22.877Z,94.20
2023-01-17T10:34:13.458Z,93.50
2023-01-17T10:37:58.252Z,93.60
2023-01-17T10:41:46.333Z,93.90
2023-01-17T10:45:29.246Z,93.60
2023-01-17T10:49:21.218Z,93.90
2023-01-17T10:53:14.689Z,93.40
2023-01-17T10:57:05.185Z,93.40
2023-01-17T11:00:55.231Z,93.90
2023-01-17T11:04:42.122Z,93.70
2023-01-17T11:08:23.901Z,93.60
2023-01-17T11:12:06.134Z,93.90
2023-01-17T11:15:50.545Z,94.00
2023-01-17T11:19:36.282Z,94.00
2023-01-17T11:23:21.689Z,93.70
2023-01-17T11:27:08.278Z,93.80
2023-01-17T11:31:03.667Z,93.70
2023-01-17T11:35:04.769Z,93.20
2023-01-17T11:39:18.215Z,92.90
2023-01-17T11:43:18.676Z,92.80
2023-01-17T11:47:12.555Z,93.10
2023-01-17T11:50:58.706Z,93.20
2023-01-17T11:54:42.411Z,93.90
2023-01-17T11:58:26.617Z,93.90
2023-01-17T12:02:31.726Z,93.80
2023-01-17T12:06:26.792Z,93.60
2023-01-17T12:10:27.974Z,93.00
2023-01-17T12:14:26.109Z,93.10
2023-01-17T12:18:31.251Z,93.30
2023-01-17T12:22:40.832Z,93.30
2023-01-17T12:26:34.865Z,93.50
2023-01-17T12:30:45.006Z,93.40
2023-01-17T12:34:35.930Z,93.00
2023-01-17T12:38:32.534Z,93.70
2023-01-17T12:42:24.056Z,93.80
2023-01-17T12:46:31.021Z,93.70
2023-01-17T12:50:45.103Z,93.80
2023-01-17T12:54:33.474Z,93.40
2023-01-17T12:58:20.889Z,93.00
2023-01-17T13:02:32.443Z,93.90
2023-01-17T13:06:29.057Z,93.60
2023-01-17T13:10:39.694Z,93.60
2023-01-17T13:14:21.386Z,93.60
2023-01-17T13:18:06.509Z,94.50
2023-01-17T13:21:50.526Z,94.50
2023-01-17T13:25:45.752Z,94.40
2023-01-17T13:29:42.469Z,94.50
2023-01-17T13:33:26.960Z,93.70
2023-01-17T13:37:36.838Z,94.40
2023-01-17T13:41:45.640Z,93.20
2023-01-17T13:45:38.098Z,93.50
2023-01-17T13:49:38.677Z,93.70
2023-01-17T13:53:35.434Z,93.30
2023-01-17T13:57:46.170Z,93.40
2023-01-17T14:01:38.773Z,93.00
2023-01-17T14:05:29.853Z,93.80
2023-01-17T14:09:14.565Z,93.70
2023-01-17T14:12:56.829Z,94.40
2023-01-17T14:16:39.608Z,94.50
2023-01-17T14:20:29.365Z,94.50
2023-01-17T14:24:11.110Z,94.10
2023-01-17T14:27:56.869Z,94.60
2023-01-17T14:31:38.733Z,94.50
2023-01-17T14:35:22.861Z,94.70
2023-01-17T14:39:20.161Z,94.70
2023-01-17T14:43:06.923Z,94.70
2023-01-17T14:46:49.288Z,94.70
2023-01-17T14:50:38.108Z,94.80
2023-01-17T14:54:22.197Z,94.50
2023-01-17T14:58:04.652Z,94.70
2023-01-17T15:02:07.529Z,94.80
2023-01-17T15:05:52.599Z,94.40
2023-01-17T15:09:37.773Z,94.70
2023-01-17T15:13:35.478Z,94.60
2023-01-17T15:17:25.101Z,94.70
2023-01-17T15:21:11.171Z,94.80
2023-01-17T15:24:53.596Z,94.70
2023-01-17T15:28:35.862Z,94.90
2023-01-17T15:32:23.965Z,94.90
2023-01-17T15:36:14.385Z,94.70
2023-01-17T15:40:18.991Z,94.80
2023-01-17T15:44:01.587Z,94.30
2023-01-17T15:47:43.446Z,94.90
2023-01-17T15:51:38.426Z,94.80
2023-01-17T15:55:29.182Z,94.30
2023-01-17T15:59:50.767Z,94.50
2023-01-17T16:03:32.534Z,94.10
2023-01-17T16:07:22.777Z,94.50
2023-01-17T16:11:06.383Z,94.30
2023-01-17T16:15:02.789Z,94.50
2023-01-17T16:18:57.547Z,94.40
2023-01-17T16:22:39.305Z,94.30
2023-01-17T16:26:21.447Z,94.30
2023-01-17T16:30:03.458Z,94.30
2023-01-17T16:33:46.166Z,94.30
2023-01-17T16:37:27.958Z,94.20
2023-01-17T16:41:09.732Z,94.10
2023-01-17T16:44:51.450Z,94.10
2023-01-17T16:48:33.249Z,94.10
2023-01-17T16:52:15.001Z,94.10
2023-01-17T16:55:59.580Z,94.10
2023-01-17T16:59:50.655Z,94.00
2023-01-17T17:03:32.783Z,94.00
2023-01-17T17:07:14.629Z,94.00
2023-01-17T17:11:13.047Z,94.00
2023-01-17T17:14:55.012Z,94.00
2023-01-17T17:18:36.784Z,94.10
2023-01-17T17:22:18.738Z,94.10
2023-01-17T17:26:00.779Z,94.10
2023-01-17T17:29:42.515Z,94.10
2023-01-17T17:33:24.248Z,94.00
2023-01-17T17:37:05.984Z,93.90
2023-01-17T17:40:47.662Z,94.00
2023-01-17T17:44:29.412Z,94.00
2023-01-17T17:48:11.108Z,93.90
2023-01-17T17:51:52.827Z,93.90
2023-01-17T17:55:35.936Z,93.90
2023-01-17T17:59:20.951Z,93.80
2023-01-17T18:03:02.650Z,93.80
2023-01-17T18:06:44.604Z,93.80
2023-01-17T18:10:26.897Z,93.80
2023-01-17T18:14:12.452Z,93.80
2023-01-17T18:17:56.148Z,93.80
2023-01-17T18:21:39.199Z,93.90
2023-01-17T18:25:20.949Z,93.90
2023-01-17T18:29:04.153Z,93.80
2023-01-17T18:32:49.862Z,93.70
2023-01-17T18:36:31.819Z,93.70
2023-01-17T18:40:13.746Z,93.70
2023-01-17T18:43:58.645Z,93.70
2023-01-17T18:47:40.350Z,93.70
2023-01-17T18:51:22.155Z,93.60
2023-01-17T18:55:04.618Z,93.60
2023-01-17T18:58:48.082Z,93.60
2023-01-17T19:02:29.944Z,93.60
2023-01-17T19:06:16.911Z,93.80
2023-01-17T19:09:58.595Z,93.70
2023-01-17T19:13:42.155Z,93.80
2023-01-17T19:17:24.008Z,93.90
2023-01-17T19:21:15.461Z,93.90
2023-01-17T19:24:57.162Z,94.00
2023-01-17T19:28:43.911Z,93.90
2023-01-17T19:32:25.669Z,93.90
2023-01-17T19:36:09.243Z,93.90
2023-01-17T19:39:51.131Z,93.90
2023-01-17T19:43:33.300Z,93.90
2023-01-17T19:47:15.079Z,93.80
2023-01-17T19:51:12.474Z,93.70
2023-01-17T19:54:54.179Z,93.80
2023-01-17T19:58:36.503Z,94.10
2023-01-17T20:02:18.891Z,93.80
2023-01-17T20:06:00.976Z,93.90
2023-01-17T20:09:42.695Z,93.90
2023-01-17T20:13:25.311Z,94.00
2023-01-17T20:17:07.047Z,93.90
2023-01-17T20:20:56.943Z,93.90
2023-01-17T20:24:39.392Z,93.90
2023-01-17T20:28:21.153Z,93.90
2023-01-17T20:32:02.966Z,94.00
2023-01-17T20:35:45.043Z,94.10
2023-01-17T20:39:26.930Z,94.30
2023-01-17T20:43:10.011Z,94.30
2023-01-17T20:46:51.727Z,94.30
2023-01-17T20:50:36.769Z,94.30
2023-01-17T20:54:19.250Z,94.30
2023-01-17T20:58:00.971Z,94.50
2023-01-17T21:01:43.885Z,94.60
2023-01-17T21:05:25.776Z,94.60
2023-01-17T21:09:10.734Z,94.60
2023-01-17T21:12:52.446Z,94.60
2023-01-17T21:16:35.272Z,94.60
2023-01-17T21:20:17.198Z,94.60
2023-01-17T21:23:59.440Z,94.50
2023-01-17T21:27:41.196Z,94.50
2023-01-17T21:31:25.207Z,94.50
2023-01-17T21:35:07.686Z,94.40
2023-01-17T21:38:56.783Z,94.20
2023-01-17T21:42:38.509Z,94.00
2023-01-17T21:46:20.325Z,94.10
2023-01-17T21:50:02.147Z,93.70
2023-01-17T21:53:43.963Z,93.60
2023-01-17T21:58:00.981Z,93.50
2023-01-17T22:01:42.800Z,93.50
2023-01-17T22:05:24.620Z,93.50
2023-01-17T22:09:07.255Z,93.50
2023-01-17T22:12:52.187Z,93.60
2023-01-17T22:16:33.951Z,93.90
2023-01-17T22:20:16.056Z,94.00
2023-01-17T22:23:59.682Z,94.00
2023-01-17T22:27:41.403Z,94.20
2023-01-17T22:31:26.152Z,94.50
2023-01-17T22:35:08.426Z,94.80
2023-01-17T22:38:50.761Z,95.00
2023-01-17T22:42:34.349Z,95.10
2023-01-17T22:46:19.024Z,95.10
2023-01-17T22:50:00.849Z,95.10
2023-01-17T22:53:48.402Z,95.10
2023-01-17T22:57:32.864Z,94.70
2023-01-17T23:01:18.107Z,94.50
2023-01-17T23:04:59.894Z,94.20
2023-01-17T23:08:44.698Z,94.00
2023-01-17T23:12:26.734Z,93.80
2023-01-17T23:16:27.627Z,93.60
2023-01-17T23:20:11.145Z,93.60
2023-01-17T23:23:52.839Z,93.60
2023-01-17T23:28:02.067Z,93.70
2023-01-17T23:31:44.328Z,93.90
2023-01-17T23:35:29.220Z,94.20
2023-01-17T23:39:11.197Z,94.30
2023-01-17T23:43:11.556Z,94.50
2023-01-17T23:46:53.812Z,94.60
2023-01-17T23:50:47.217Z,94.60
2023-01-17T23:54:29.188Z,94.70
2023-01-17T23:58:12.973Z,94.60
